createdAt,value
2022-10-06T00:03:23.034Z,7.18
2022-10-06T00:08:25.156Z,7.18
2022-10-06T00:13:28.421Z,7.78
2022-10-06T00:18:30.863Z,8.95
2022-10-06T00:23:33.039Z,6.90
2022-10-06T00:28:35.079Z,7.03
2022-10-06T00:33:39.274Z,5.68
2022-10-06T00:38:41.212Z,7.18
2022-10-06T00:43:52.023Z,9.13
2022-10-06T00:49:19.383Z,7.03
2022-10-06T00:54:21.957Z,7.22
2022-10-06T00:59:23.666Z,6.43
2022-10-06T01:04:26.831Z,8.63
2022-10-06T01:09:30.296Z,6.65
2022-10-06T01:14:33.080Z,5.45
2022-10-06T01:19:59.281Z,6.45
2022-10-06T01:25:02.838Z,5.57
2022-10-06T01:30:07.104Z,6.30
2022-10-06T01:35:09.632Z,5.70
2022-10-06T01:40:11.858Z,5.20
2022-10-06T01:45:13.759Z,6.90
2022-10-06T01:50:15.570Z,7.03
2022-10-06T01:55:17.626Z,6.43
2022-10-06T02:00:19.985Z,4.55
2022-10-06T02:05:22.961Z,6.55
2022-10-06T02:10:27.015Z,6.60
2022-10-06T02:15:33.025Z,5.85
2022-10-06T02:20:34.840Z,6.60
2022-10-06T02:25:36.645Z,6.45
2022-10-06T02:30:38.956Z,5.97
2022-10-06T02:35:42.879Z,5.88
2022-10-06T02:40:45.010Z,6.18
2022-10-06T02:45:58.151Z,5.00
2022-10-06T02:51:02.864Z,6.18
2022-10-06T02:56:34.223Z,6.65
2022-10-06T03:01:36.137Z,5.97
2022-10-06T03:06:49.244Z,6.57
2022-10-06T03:11:54.087Z,5.72
2022-10-06T03:22:06.678Z,6.25
2022-10-06T03:27:24.005Z,8.65
2022-10-06T03:32:29.128Z,8.60
2022-10-06T03:37:30.912Z,6.80
2022-10-06T03:42:32.766Z,7.93
2022-10-06T03:47:34.851Z,7.35
2022-10-06T03:52:36.772Z,5.22
2022-10-06T03:57:38.568Z,5.50
2022-10-06T04:02:40.910Z,6.18
2022-10-06T04:07:43.340Z,7.35
2022-10-06T04:12:45.638Z,6.38
2022-10-06T04:17:47.485Z,6.88
2022-10-06T04:22:50.594Z,4.70
2022-10-06T04:27:53.381Z,4.68
2022-10-06T04:32:55.585Z,5.43
2022-10-06T04:37:57.606Z,4.15
2022-10-06T04:42:59.841Z,3.60
2022-10-06T04:48:01.978Z,3.42
2022-10-06T04:53:04.449Z,2.35
2022-10-06T04:58:06.831Z,2.97
2022-10-06T05:03:09.369Z,2.67
2022-10-06T05:08:11.430Z,2.70
2022-10-06T05:13:14.395Z,3.90
2022-10-06T05:18:16.315Z,3.25
2022-10-06T05:23:18.771Z,2.60
2022-10-06T05:28:29.370Z,1.92
2022-10-06T05:33:35.276Z,2.80
2022-10-06T05:38:37.851Z,2.13
2022-10-06T05:43:40.638Z,5.88
2022-10-06T05:48:46.699Z,2.30
2022-10-06T05:53:49.717Z,2.83
2022-10-06T05:58:54.045Z,4.47
2022-10-06T06:04:02.658Z,3.72
2022-10-06T06:09:17.126Z,2.45
2022-10-06T06:14:41.831Z,3.22
2022-10-06T06:19:43.856Z,3.85
2022-10-06T06:24:46.010Z,2.45
2022-10-06T06:29:48.830Z,2.13
2022-10-06T06:34:52.747Z,1.20
2022-10-06T06:39:54.807Z,3.10
2022-10-06T06:44:56.626Z,3.22
2022-10-06T06:50:14.036Z,2.10
2022-10-06T06:55:16.895Z,3.78
2022-10-06T07:00:18.754Z,3.78
2022-10-06T07:05:20.556Z,3.25
2022-10-06T07:10:22.448Z,2.92
2022-10-06T07:15:43.265Z,3.28
2022-10-06T07:21:03.475Z,2.78
2022-10-06T07:26:05.659Z,4.18
2022-10-06T07:31:07.559Z,3.45
2022-10-06T07:36:11.136Z,3.33
2022-10-06T07:41:19.366Z,3.20
2022-10-06T07:46:25.802Z,3.72
2022-10-06T07:51:38.505Z,4.63
2022-10-06T07:56:40.534Z,2.80
2022-10-06T08:01:44.412Z,3.45
2022-10-06T08:06:47.618Z,4.13
2022-10-06T08:11:49.321Z,5.07
2022-10-06T08:16:52.230Z,7.35
2022-10-06T08:21:53.938Z,6.00
2022-10-06T08:26:55.652Z,8.07
2022-10-06T08:31:59.336Z,5.78
2022-10-06T08:37:19.354Z,5.18
2022-10-06T08:42:39.093Z,8.15
2022-10-06T08:47:50.837Z,6.05
2022-10-06T08:53:15.487Z,4.53
2022-10-06T08:58:30.508Z,5.28
2022-10-06T09:03:32.255Z,5.55
2022-10-06T09:08:55.006Z,5.50
2022-10-06T09:14:06.318Z,5.40
2022-10-06T09:20:02.448Z,6.63
2022-10-06T09:25:20.093Z,7.47
2022-10-06T09:30:22.044Z,7.85
2022-10-06T09:35:27.828Z,6.70
2022-10-06T09:40:40.351Z,5.55
2022-10-06T09:45:42.632Z,9.05
2022-10-06T09:50:45.661Z,10.98
2022-10-06T09:55:52.091Z,8.63
2022-10-06T10:01:00.853Z,8.52
2022-10-06T10:06:02.812Z,7.83
2022-10-06T10:11:49.239Z,10.43
2022-10-06T10:16:53.348Z,7.50
2022-10-06T10:21:56.342Z,7.38
2022-10-06T10:27:08.221Z,6.65
2022-10-06T10:32:19.461Z,5.38
2022-10-06T10:37:45.693Z,4.18
2022-10-06T10:42:56.446Z,5.20
2022-10-06T10:48:11.006Z,5.63
2022-10-06T10:53:29.718Z,5.97
2022-10-06T10:58:35.699Z,9.52
2022-10-06T11:03:37.810Z,5.65
2022-10-06T11:09:09.850Z,7.53
2022-10-06T11:14:37.120Z,8.95
2022-10-06T11:20:09.386Z,4.43
2022-10-06T11:25:22.569Z,5.63
2022-10-06T11:30:28.968Z,6.90
2022-10-06T11:35:37.286Z,6.20
2022-10-06T11:41:00.438Z,7.10
2022-10-06T11:46:10.450Z,6.50
2022-10-06T11:51:24.868Z,6.55
2022-10-06T11:56:36.652Z,6.28
2022-10-06T12:01:43.722Z,5.20
2022-10-06T12:06:48.581Z,5.68
2022-10-06T12:11:52.156Z,6.57
2022-10-06T12:17:12.762Z,7.22
2022-10-06T12:22:30.019Z,5.43
2022-10-06T12:27:32.059Z,5.13
2022-10-06T12:32:55.747Z,6.32
2022-10-06T12:38:06.180Z,6.30
2022-10-06T12:43:23.003Z,7.35
2022-10-06T12:48:35.309Z,7.53
2022-10-06T12:54:02.711Z,4.72
2022-10-06T12:59:21.515Z,6.38
2022-10-06T13:04:53.449Z,5.10
2022-10-06T13:10:17.305Z,4.43
2022-10-06T13:15:27.806Z,5.50
2022-10-06T13:20:40.058Z,6.32
2022-10-06T13:25:57.581Z,7.13
2022-10-06T13:36:10.959Z,6.20
2022-10-06T13:41:17.443Z,5.15
2022-10-06T13:46:22.764Z,4.85
2022-10-06T13:51:31.078Z,7.00
2022-10-06T13:56:35.151Z,10.40
2022-10-06T14:01:36.913Z,6.32
2022-10-06T14:06:44.850Z,7.45
2022-10-06T14:11:46.966Z,6.45
2022-10-06T14:16:52.741Z,5.88
2022-10-06T14:21:54.466Z,6.38
2022-10-06T14:27:01.737Z,5.70
2022-10-06T14:32:08.591Z,5.82
2022-10-06T14:37:15.092Z,7.45
2022-10-06T14:42:17.364Z,7.72
2022-10-06T14:47:19.726Z,6.40
2022-10-06T14:52:22.803Z,4.55
2022-10-06T14:57:24.498Z,4.28
2022-10-06T15:02:26.335Z,4.80
2022-10-06T15:07:47.013Z,4.25
2022-10-06T15:12:48.722Z,4.30
2022-10-06T15:17:50.637Z,4.82
2022-10-06T15:22:52.496Z,6.25
2022-10-06T15:28:12.779Z,5.50
2022-10-06T15:33:14.539Z,6.53
2022-10-06T15:38:16.239Z,6.80
2022-10-06T15:43:37.958Z,6.80
2022-10-06T15:48:41.442Z,7.65
2022-10-06T15:53:46.507Z,5.55
2022-10-06T15:58:48.826Z,5.32
2022-10-06T16:03:50.741Z,6.90
2022-10-06T16:08:52.524Z,6.60
2022-10-06T16:13:54.250Z,6.35
2022-10-06T16:18:56.241Z,6.00
2022-10-06T16:23:58.792Z,5.28
2022-10-06T16:29:00.555Z,6.68
2022-10-06T16:34:02.314Z,9.02
2022-10-06T16:39:06.155Z,7.45
2022-10-06T16:44:07.877Z,5.20
2022-10-06T16:49:10.118Z,6.70
2022-10-06T16:54:14.010Z,9.25
2022-10-06T16:59:18.364Z,5.10
2022-10-06T17:04:26.549Z,7.50
2022-10-06T17:09:29.708Z,9.20
2022-10-06T17:14:33.170Z,7.72
2022-10-06T17:19:35.025Z,7.43
2022-10-06T17:24:36.837Z,7.00
2022-10-06T17:29:39.077Z,7.43
2022-10-06T17:34:40.899Z,8.13
2022-10-06T17:39:47.111Z,9.10
2022-10-06T17:44:49.162Z,5.88
2022-10-06T17:49:51.297Z,9.43
2022-10-06T17:54:54.369Z,7.82
2022-10-06T17:59:58.892Z,10.35
2022-10-06T18:05:00.608Z,11.55
2022-10-06T18:10:20.992Z,12.35
2022-10-06T18:15:22.706Z,12.10
2022-10-06T18:20:29.886Z,12.27
2022-10-06T18:25:31.761Z,11.80
2022-10-06T18:30:33.974Z,12.60
2022-10-06T18:41:00.400Z,11.90
2022-10-06T18:46:23.374Z,13.88
2022-10-06T18:51:33.701Z,12.63
2022-10-06T18:56:38.027Z,14.68
2022-10-06T19:01:41.918Z,17.27
2022-10-06T19:06:47.024Z,13.52
2022-10-06T19:11:57.837Z,16.17
2022-10-06T19:17:13.741Z,18.13
2022-10-06T19:22:16.133Z,13.75
2022-10-06T19:27:24.020Z,13.85
2022-10-06T19:32:28.797Z,14.98
2022-10-06T19:37:31.195Z,16.25
2022-10-06T19:42:48.047Z,14.52
2022-10-06T19:47:51.301Z,13.40
2022-10-06T19:52:53.020Z,11.15
2022-10-06T19:57:54.765Z,12.40
2022-10-06T20:02:56.501Z,12.20
2022-10-06T20:07:58.304Z,11.27
2022-10-06T20:13:00.067Z,10.75
2022-10-06T20:18:02.068Z,11.55
2022-10-06T20:23:03.806Z,12.68
2022-10-06T20:28:08.970Z,12.85
2022-10-06T20:33:11.500Z,15.75
2022-10-06T20:38:16.341Z,13.70
2022-10-06T20:43:24.342Z,16.33
2022-10-06T20:48:28.781Z,17.13
2022-10-06T20:53:33.534Z,14.27
2022-10-06T20:58:35.815Z,17.10
2022-10-06T21:03:46.585Z,15.05
2022-10-06T21:08:49.278Z,15.10
2022-10-06T21:13:55.763Z,13.10
2022-10-06T21:18:59.805Z,11.43
2022-10-06T21:24:02.495Z,11.23
2022-10-06T21:29:04.766Z,12.40
2022-10-06T21:34:06.705Z,13.63
2022-10-06T21:39:08.877Z,13.52
2022-10-06T21:44:14.574Z,14.57
2022-10-06T21:49:20.584Z,12.23
2022-10-06T21:54:23.291Z,15.38
2022-10-06T21:59:25.050Z,13.18
2022-10-06T22:04:26.783Z,10.38
2022-10-06T22:09:28.580Z,13.13
2022-10-06T22:14:30.321Z,10.98
2022-10-06T22:19:32.115Z,9.45
2022-10-06T22:24:33.845Z,8.60
2022-10-06T22:29:35.590Z,10.27
2022-10-06T22:34:38.030Z,10.60
2022-10-06T22:39:39.843Z,14.60
2022-10-06T22:44:41.578Z,12.57
2022-10-06T22:49:43.313Z,10.23
2022-10-06T22:54:45.053Z,11.05
2022-10-06T22:59:46.795Z,11.52
2022-10-06T23:04:48.540Z,11.32
2022-10-06T23:09:50.310Z,10.30
2022-10-06T23:14:52.070Z,13.07
2022-10-06T23:19:53.830Z,12.20
2022-10-06T23:24:55.660Z,10.93
2022-10-06T23:29:57.478Z,9.30
2022-10-06T23:34:59.343Z,10.05
2022-10-06T23:40:01.101Z,10.68
2022-10-06T23:45:02.872Z,9.85
2022-10-06T23:50:05.023Z,9.32
2022-10-06T23:55:07.445Z,9.65
